Time;durP1;ratioP1;P1;durP2;ratioP2;P2;SDS_P1;SDS_P2;PMS_P1;PMS_P2;Temp;Humidity;BMP_temperature;BMP_pressure;BME280_temperature;BME280_humidity;BME280_pressure;Samples;Min_cycle;Max_cycle;Signal;HPM_P1;HPM_P2
2023/05/04 00:01:49;;;;;;;9.40;5.80;;;7.60;99.90;;;;;;6184526;23;20017;-77
2023/05/04 00:04:14;;;;;;;6.18;5.57;;;7.60;99.90;;;;;;6159591;23;20020;-77
2023/05/04 00:06:40;;;;;;;5.93;5.32;;;7.40;99.90;;;;;;6159513;23;20013;-78
2023/05/04 00:09:06;;;;;;;7.75;5.30;;;7.30;99.90;;;;;;6184419;23;20147;-77
2023/05/04 00:11:32;;;;;;;6.50;5.20;;;7.10;99.90;;;;;;6159558;23;20021;-77
2023/05/04 00:13:58;;;;;;;7.85;5.05;;;7.10;99.90;;;;;;6186340;23;20017;-77
2023/05/04 00:16:23;;;;;;;8.40;6.35;;;7.00;99.90;;;;;;6159606;23;20043;-77
2023/05/04 00:18:49;;;;;;;9.43;5.75;;;7.20;99.90;;;;;;6184399;23;20017;-78
2023/05/04 00:21:18;;;;;;;8.00;5.88;;;7.20;99.90;;;;;;6184348;23;20024;-77
2023/05/04 00:23:44;;;;;;;7.30;5.75;;;7.20;99.90;;;;;;6184435;23;20009;-77
2023/05/04 00:26:09;;;;;;;7.72;5.63;;;7.30;99.90;;;;;;6184722;23;20009;-77
2023/05/04 00:28:35;;;;;;;7.50;5.80;;;7.30;99.90;;;;;;6159498;23;20071;-77
2023/05/04 00:31:00;;;;;;;10.07;5.82;;;7.30;99.90;;;;;;6159609;23;20434;-77
2023/05/04 00:33:26;;;;;;;7.60;4.95;;;7.30;99.90;;;;;;6159541;23;20013;-77
2023/05/04 00:35:52;;;;;;;7.72;5.97;;;7.40;99.90;;;;;;6159508;23;20020;-77
2023/05/04 00:38:18;;;;;;;7.45;5.55;;;7.40;99.90;;;;;;6187042;23;20296;-77
2023/05/04 00:40:43;;;;;;;10.38;6.13;;;7.40;99.90;;;;;;6184178;23;20094;-77
2023/05/04 00:43:09;;;;;;;10.75;6.07;;;7.30;99.90;;;;;;6159421;23;20016;-77
2023/05/04 00:45:35;;;;;;;6.85;4.95;;;7.30;99.90;;;;;;6184406;23;20013;-77
2023/05/04 00:48:01;;;;;;;9.52;6.00;;;7.20;99.90;;;;;;6159422;23;20008;-77
2023/05/04 00:50:27;;;;;;;7.53;5.68;;;7.10;99.90;;;;;;6159364;23;20020;-77
2023/05/04 00:52:57;;;;;;;8.13;5.95;;;7.00;99.90;;;;;;6186051;23;20009;-77
2023/05/04 00:55:22;;;;;;;8.30;5.55;;;7.00;99.90;;;;;;6184495;23;20013;-77
2023/05/04 00:57:49;;;;;;;7.32;5.18;;;7.10;99.90;;;;;;6184115;23;20427;-77
2023/05/04 01:00:15;;;;;;;8.35;5.75;;;7.20;99.90;;;;;;6159343;23;20021;-77
2023/05/04 01:02:41;;;;;;;7.85;6.18;;;7.30;99.90;;;;;;6184088;23;20052;-77
2023/05/04 01:05:09;;;;;;;8.57;5.75;;;7.20;99.90;;;;;;6160259;23;20021;-78
2023/05/04 01:07:42;;;;;;;8.32;5.40;;;7.20;99.90;;;;;;6159220;23;20017;-77
2023/05/04 01:10:19;;;;;;;10.45;6.10;;;7.20;99.90;;;;;;6184189;23;20092;-77
2023/05/04 01:12:54;;;;;;;9.75;5.97;;;7.10;99.90;;;;;;6184053;23;20461;-77
2023/05/04 01:15:21;;;;;;;10.75;6.40;;;7.20;99.90;;;;;;6184433;23;20009;-77
2023/05/04 01:17:47;;;;;;;6.68;5.63;;;7.10;99.90;;;;;;6187030;23;20477;-77
2023/05/04 01:20:13;;;;;;;7.75;6.00;;;7.10;99.90;;;;;;6185641;23;20120;-77
2023/05/04 01:22:39;;;;;;;10.93;7.15;;;7.20;99.90;;;;;;6161117;23;20021;-77
2023/05/04 01:25:05;;;;;;;8.75;6.30;;;7.10;99.90;;;;;;6161446;23;20078;-77
2023/05/04 01:27:58;;;;;;;10.45;6.63;;;7.10;99.90;;;;;;6187584;23;20013;-77
2023/05/04 01:30:27;;;;;;;11.52;7.13;;;7.10;99.90;;;;;;6161088;23;20009;-77
2023/05/04 01:32:56;;;;;;;9.93;7.20;;;7.20;99.90;;;;;;6161087;23;20434;-77
2023/05/04 01:35:22;;;;;;;9.05;5.88;;;7.20;99.90;;;;;;6161059;23;20084;-77
2023/05/04 01:37:48;;;;;;;8.90;5.85;;;7.20;99.90;;;;;;6136448;23;20434;-77
2023/05/04 01:40:13;;;;;;;8.00;6.03;;;7.20;99.90;;;;;;6161166;23;20084;-77
2023/05/04 01:42:39;;;;;;;8.38;6.53;;;7.30;99.90;;;;;;6161050;23;20343;-77
2023/05/04 01:45:06;;;;;;;10.57;6.50;;;7.20;99.90;;;;;;6136392;23;20013;-77
2023/05/04 01:47:32;;;;;;;10.18;6.63;;;7.20;99.90;;;;;;6136309;23;20017;-77
2023/05/04 01:49:58;;;;;;;9.20;6.78;;;7.20;99.90;;;;;;6136469;23;20462;-78
2023/05/04 01:52:23;;;;;;;12.05;7.10;;;7.20;99.90;;;;;;6161369;23;20013;-78
2023/05/04 01:54:49;;;;;;;10.18;6.35;;;7.20;99.90;;;;;;6160986;23;20005;-77
2023/05/04 01:57:14;;;;;;;11.23;6.82;;;7.20;99.90;;;;;;6136306;23;20017;-77
2023/05/04 01:59:40;;;;;;;9.02;6.30;;;7.20;99.90;;;;;;6136370;23;20013;-77
2023/05/04 02:02:05;;;;;;;10.18;6.72;;;7.20;99.90;;;;;;6187518;23;20020;-77
2023/05/04 02:04:31;;;;;;;10.77;6.97;;;7.20;99.90;;;;;;6160802;23;20303;-77
2023/05/04 02:06:57;;;;;;;10.15;6.68;;;7.20;99.90;;;;;;6136117;23;20024;-77
2023/05/04 02:09:22;;;;;;;8.50;6.53;;;7.10;99.90;;;;;;6160791;23;20009;-77
2023/05/04 02:11:48;;;;;;;8.75;6.85;;;7.10;99.90;;;;;;6187284;23;20013;-77
2023/05/04 02:14:13;;;;;;;11.30;7.35;;;7.00;99.90;;;;;;6187427;23;20052;-78
2023/05/04 02:16:39;;;;;;;10.60;7.22;;;7.00;99.90;;;;;;6187441;23;20024;-77
2023/05/04 02:19:05;;;;;;;8.80;6.45;;;7.00;99.90;;;;;;6161130;23;20323;-77
2023/05/04 02:21:30;;;;;;;8.45;7.10;;;7.00;99.90;;;;;;6151139;23;20060;-77
2023/05/04 02:23:56;;;;;;;10.93;7.38;;;7.00;99.90;;;;;;6160653;23;20094;-77
2023/05/04 02:26:22;;;;;;;10.95;7.60;;;7.00;99.90;;;;;;6185711;23;20334;-78
2023/05/04 02:28:47;;;;;;;9.23;7.30;;;7.00;99.90;;;;;;6185125;23;20044;-78
2023/05/04 02:31:13;;;;;;;10.10;7.78;;;6.90;99.90;;;;;;6187440;23;20011;-77
2023/05/04 02:33:38;;;;;;;10.77;7.18;;;6.90;99.90;;;;;;6185424;23;20430;-77
2023/05/04 02:36:04;;;;;;;10.00;7.20;;;6.90;99.90;;;;;;6160440;23;20017;-78
2023/05/04 02:38:30;;;;;;;10.02;7.20;;;6.80;99.90;;;;;;6161782;23;20024;-77
2023/05/04 02:40:57;;;;;;;10.00;7.53;;;6.80;99.90;;;;;;6161482;23;20009;-77
2023/05/04 02:43:23;;;;;;;14.00;8.07;;;6.80;99.90;;;;;;6186814;23;20468;-77
2023/05/04 02:45:48;;;;;;;10.68;7.57;;;6.80;99.90;;;;;;6185021;23;20014;-77
2023/05/04 02:48:14;;;;;;;12.68;8.13;;;6.80;99.90;;;;;;6185559;23;20041;-77
2023/05/04 02:50:40;;;;;;;10.23;7.30;;;6.70;99.90;;;;;;6187013;23;20095;-77
2023/05/04 02:53:05;;;;;;;10.98;7.43;;;6.80;99.90;;;;;;6160471;23;20032;-77
2023/05/04 02:55:31;;;;;;;10.52;8.32;;;6.80;99.90;;;;;;6185363;23;20017;-77
2023/05/04 02:57:57;;;;;;;9.63;7.38;;;6.80;99.90;;;;;;6187082;23;20009;-77
2023/05/04 03:00:23;;;;;;;11.63;7.75;;;6.80;99.90;;;;;;6185044;23;20450;-77
2023/05/04 03:02:51;;;;;;;9.63;6.88;;;6.80;99.90;;;;;;6184993;23;20312;-77
2023/05/04 03:05:17;;;;;;;10.07;7.55;;;6.90;99.90;;;;;;6160106;23;20028;-77
2023/05/04 03:07:42;;;;;;;9.50;7.50;;;6.90;99.90;;;;;;6187026;23;20013;-77
2023/05/04 03:10:08;;;;;;;9.45;7.05;;;6.90;99.90;;;;;;6185075;23;20016;-77
2023/05/04 03:12:34;;;;;;;15.80;8.10;;;6.90;99.90;;;;;;6187001;23;20044;-78
2023/05/04 03:15:00;;;;;;;9.00;7.18;;;6.90;99.90;;;;;;6185072;23;20071;-77
2023/05/04 03:17:25;;;;;;;9.93;7.25;;;6.90;99.90;;;;;;6185357;23;20013;-78
2023/05/04 03:19:51;;;;;;;12.20;8.23;;;7.00;99.90;;;;;;6185017;23;20032;-77
2023/05/04 03:22:16;;;;;;;8.45;7.53;;;7.00;99.90;;;;;;6157089;23;20374;-78
2023/05/04 03:24:42;;;;;;;13.57;8.10;;;7.00;99.90;;;;;;6106177;23;20379;-78
2023/05/04 03:27:08;;;;;;;11.38;7.85;;;6.90;99.90;;;;;;6130845;23;20450;-78
2023/05/04 03:29:33;;;;;;;10.95;7.85;;;6.80;99.90;;;;;;6130971;23;20009;-78
2023/05/04 03:31:59;;;;;;;12.40;7.82;;;6.80;99.90;;;;;;6130598;23;20068;-78
2023/05/04 03:34:25;;;;;;;9.18;7.40;;;6.80;99.90;;;;;;6105992;23;20069;-78
2023/05/04 03:36:50;;;;;;;11.15;7.50;;;6.70;99.90;;;;;;6106782;23;20013;-78
2023/05/04 03:39:16;;;;;;;12.32;8.75;;;6.70;99.90;;;;;;6156613;23;20042;-77
2023/05/04 03:41:42;;;;;;;11.40;7.57;;;6.70;99.90;;;;;;6130333;23;20044;-78
2023/05/04 03:44:08;;;;;;;11.93;8.15;;;6.80;99.90;;;;;;6105722;23;20092;-78
2023/05/04 03:46:33;;;;;;;11.85;8.38;;;6.80;99.90;;;;;;6130557;23;20431;-77
2023/05/04 03:48:59;;;;;;;12.38;7.47;;;6.80;99.90;;;;;;6105836;23;20014;-78
2023/05/04 03:51:25;;;;;;;11.27;7.60;;;6.80;99.90;;;;;;6105848;23;20006;-77
2023/05/04 03:53:50;;;;;;;11.00;8.05;;;6.80;99.90;;;;;;6130307;23;20016;-78
2023/05/04 03:56:16;;;;;;;12.48;8.02;;;6.80;99.90;;;;;;6155157;23;20029;-77
2023/05/04 03:58:42;;;;;;;11.52;7.85;;;6.80;99.90;;;;;;6130216;23;20017;-77
2023/05/04 04:01:08;;;;;;;10.63;8.27;;;6.80;99.90;;;;;;6105862;23;20438;-77
2023/05/04 04:03:35;;;;;;;10.43;7.80;;;6.70;99.90;;;;;;6130213;23;20017;-78
2023/05/04 04:06:04;;;;;;;14.05;8.35;;;6.70;99.90;;;;;;6156547;23;20088;-77
2023/05/04 04:08:30;;;;;;;11.15;8.13;;;6.80;99.90;;;;;;6105785;23;20009;-78
2023/05/04 04:10:56;;;;;;;10.10;7.28;;;6.80;99.90;;;;;;6105654;23;20005;-78
2023/05/04 04:13:22;;;;;;;11.82;8.13;;;6.90;99.90;;;;;;6130048;23;20067;-77
2023/05/04 04:15:49;;;;;;;13.30;8.85;;;7.00;99.90;;;;;;6130520;23;20013;-77
2023/05/04 04:18:15;;;;;;;11.05;8.07;;;7.00;99.90;;;;;;6130529;23;20014;-78
2023/05/04 04:20:40;;;;;;;10.05;8.27;;;7.10;99.90;;;;;;6145245;23;20019;-77
2023/05/04 04:23:06;;;;;;;10.50;8.45;;;7.10;99.90;;;;;;6184754;23;20333;-78
2023/05/04 04:25:32;;;;;;;12.60;8.15;;;7.10;99.90;;;;;;6186127;23;20370;-77
2023/05/04 04:27:57;;;;;;;11.25;8.07;;;7.10;99.90;;;;;;6159526;23;20338;-77
2023/05/04 04:30:23;;;;;;;11.18;7.93;;;7.20;99.90;;;;;;6159522;23;20009;-78
2023/05/04 04:32:49;;;;;;;11.15;8.23;;;7.20;99.90;;;;;;6185953;23;20116;-78
2023/05/04 04:35:14;;;;;;;10.70;7.90;;;7.20;99.90;;;;;;6184687;23;20086;-78
2023/05/04 04:37:40;;;;;;;11.13;7.88;;;7.20;99.90;;;;;;6184245;23;20052;-78
2023/05/04 04:40:07;;;;;;;12.18;7.55;;;7.20;99.90;;;;;;6159292;23;20017;-77
2023/05/04 04:42:33;;;;;;;11.95;8.15;;;7.30;99.90;;;;;;6159452;23;20020;-78
2023/05/04 04:44:59;;;;;;;13.77;8.73;;;7.30;99.90;;;;;;6184680;23;20342;-77
2023/05/04 04:47:25;;;;;;;13.93;8.32;;;7.30;99.90;;;;;;6159211;23;20024;-78
2023/05/04 04:49:51;;;;;;;11.23;8.07;;;7.20;99.90;;;;;;6186138;23;20009;-78
2023/05/04 04:52:17;;;;;;;13.45;8.90;;;7.30;99.90;;;;;;6158973;23;20072;-78
2023/05/04 04:54:44;;;;;;;12.57;8.48;;;7.30;99.90;;;;;;6184559;23;20112;-78
2023/05/04 04:57:10;;;;;;;11.70;7.75;;;7.30;99.90;;;;;;6184611;23;20080;-78
2023/05/04 04:59:36;;;;;;;11.57;8.10;;;7.30;99.90;;;;;;6159233;23;20048;-77
2023/05/04 05:02:02;;;;;;;11.23;7.82;;;7.30;99.90;;;;;;6184407;23;20025;-78
2023/05/04 05:04:28;;;;;;;10.20;7.68;;;7.30;99.90;;;;;;6184024;23;20063;-78
2023/05/04 05:06:54;;;;;;;10.07;7.85;;;7.30;99.90;;;;;;6183953;23;20100;-77
2023/05/04 05:09:20;;;;;;;11.75;8.13;;;7.40;99.90;;;;;;6184037;23;20009;-78
2023/05/04 05:11:45;;;;;;;11.40;8.32;;;7.40;99.90;;;;;;6185703;23;20021;-78
2023/05/04 05:14:11;;;;;;;12.25;8.65;;;7.50;99.90;;;;;;6159269;23;20040;-78
2023/05/04 05:16:37;;;;;;;11.63;8.77;;;7.60;99.90;;;;;;6184048;23;20009;-77
2023/05/04 05:19:03;;;;;;;11.05;8.32;;;7.60;99.90;;;;;;6184056;23;20013;-78
2023/05/04 05:21:28;;;;;;;14.52;8.93;;;7.60;99.90;;;;;;6184192;23;20455;-77
2023/05/04 05:23:54;;;;;;;15.25;7.93;;;7.60;99.90;;;;;;6159272;23;20512;-79
2023/05/04 05:26:20;;;;;;;9.65;7.68;;;7.70;99.90;;;;;;6159249;23;20378;-78
2023/05/04 05:28:46;;;;;;;12.43;9.10;;;7.70;99.90;;;;;;6183890;23;20346;-79
2023/05/04 05:31:12;;;;;;;11.95;8.10;;;7.80;99.90;;;;;;6159150;23;20009;-78
2023/05/04 05:33:39;;;;;;;11.23;8.38;;;7.80;99.90;;;;;;6183815;23;20342;-78
2023/05/04 05:36:04;;;;;;;13.25;8.82;;;7.80;99.90;;;;;;6159086;23;20017;-77
2023/05/04 05:38:30;;;;;;;11.95;8.65;;;7.90;99.90;;;;;;6185803;23;20331;-77
2023/05/04 05:40:56;;;;;;;12.93;8.18;;;7.90;99.90;;;;;;6185712;23;20071;-78
2023/05/04 05:43:22;;;;;;;11.00;8.68;;;8.00;99.90;;;;;;6159442;23;20071;-77
2023/05/04 05:45:47;;;;;;;13.15;8.07;;;8.00;99.90;;;;;;6159080;23;20013;-77
2023/05/04 05:48:13;;;;;;;12.75;8.93;;;8.10;99.90;;;;;;6184223;23;20005;-77
2023/05/04 05:50:38;;;;;;;11.88;8.52;;;8.10;99.90;;;;;;6185710;23;20104;-77
2023/05/04 05:53:04;;;;;;;10.73;7.82;;;8.00;99.90;;;;;;6183797;23;20005;-77
2023/05/04 05:55:30;;;;;;;12.75;8.82;;;8.00;99.90;;;;;;6184151;23;20088;-77
2023/05/04 05:57:55;;;;;;;10.98;8.85;;;8.00;99.90;;;;;;6159159;23;20084;-77
2023/05/04 06:00:21;;;;;;;11.60;8.60;;;8.10;99.90;;;;;;6185801;23;20016;-77
2023/05/04 06:02:47;;;;;;;10.05;8.40;;;8.10;99.90;;;;;;6184320;23;20013;-77
2023/05/04 06:05:12;;;;;;;12.05;8.90;;;8.20;99.90;;;;;;6185984;23;20434;-77
2023/05/04 06:07:38;;;;;;;13.77;8.43;;;8.30;99.90;;;;;;6160819;23;20393;-77
2023/05/04 06:10:04;;;;;;;12.15;8.57;;;8.30;99.90;;;;;;6185649;23;20147;-77
2023/05/04 06:12:30;;;;;;;11.55;8.40;;;8.30;99.90;;;;;;6160738;23;20497;-77
2023/05/04 06:14:55;;;;;;;13.02;8.32;;;8.40;99.90;;;;;;6185965;23;20390;-79
2023/05/04 06:17:21;;;;;;;13.50;9.65;;;8.50;99.90;;;;;;6185570;23;20083;-78
2023/05/04 06:19:46;;;;;;;12.05;8.27;;;8.50;99.90;;;;;;6187059;23;20016;-78
2023/05/04 06:22:13;;;;;;;11.07;8.40;;;8.60;99.90;;;;;;6185231;23;20024;-78
2023/05/04 06:24:38;;;;;;;11.98;8.57;;;8.60;99.90;;;;;;6185405;23;20118;-79
2023/05/04 06:27:04;;;;;;;13.00;9.95;;;8.70;99.90;;;;;;6185406;23;20435;-78
2023/05/04 06:29:30;;;;;;;11.88;8.60;;;8.80;99.90;;;;;;6185521;23;20009;-79
2023/05/04 06:31:55;;;;;;;12.85;8.07;;;8.80;99.90;;;;;;6187372;23;20021;-78
2023/05/04 06:34:21;;;;;;;12.80;8.38;;;8.90;99.90;;;;;;6185918;23;20013;-78
2023/05/04 06:36:48;;;;;;;15.27;9.15;;;8.90;99.90;;;;;;6185415;23;20017;-79
2023/05/04 06:39:14;;;;;;;15.82;8.77;;;8.90;99.90;;;;;;6185366;23;20395;-79
2023/05/04 06:41:40;;;;;;;13.82;8.88;;;8.90;99.90;;;;;;6185890;23;20112;-79
2023/05/04 06:44:06;;;;;;;12.15;9.38;;;9.00;99.90;;;;;;6187290;23;20048;-79
2023/05/04 06:46:38;;;;;;;14.73;9.30;;;9.10;99.90;;;;;;6160551;23;20375;-79
2023/05/04 06:49:04;;;;;;;14.00;9.00;;;9.20;99.90;;;;;;6160526;23;20088;-79
2023/05/04 06:51:30;;;;;;;18.20;8.82;;;9.20;99.90;;;;;;6185809;23;20036;-78
2023/05/04 06:53:56;;;;;;;11.73;9.05;;;9.30;99.90;;;;;;6185764;23;20009;-73
2023/05/04 06:56:22;;;;;;;13.00;8.93;;;9.30;99.90;;;;;;6161489;23;20083;-79
2023/05/04 06:58:51;;;;;;;15.68;9.13;;;9.40;99.90;;;;;;6185649;23;20017;-80
2023/05/04 07:01:16;;;;;;;11.60;8.48;;;9.50;99.90;;;;;;6160555;23;20036;-79
2023/05/04 07:03:42;;;;;;;18.33;9.45;;;9.60;99.90;;;;;;6160495;23;20013;-83
2023/05/04 07:06:08;;;;;;;14.57;8.98;;;9.60;99.90;;;;;;6187295;23;20312;-82
2023/05/04 07:08:34;;;;;;;11.57;8.52;;;9.60;99.90;;;;;;6160516;23;20031;-82
2023/05/04 07:11:00;;;;;;;14.73;8.93;;;9.60;99.90;;;;;;6160403;23;20045;-83
2023/05/04 07:13:26;;;;;;;32.42;10.48;;;9.60;99.90;;;;;;6185601;23;20040;-80
2023/05/04 07:15:51;;;;;;;14.55;8.23;;;9.70;99.90;;;;;;6184781;23;20053;-86
2023/05/04 07:18:17;;;;;;;14.25;8.27;;;9.70;99.90;;;;;;6185564;23;20013;-81
2023/05/04 07:20:43;;;;;;;10.50;7.95;;;9.80;99.90;;;;;;6185391;23;20032;-85
2023/05/04 07:23:08;;;;;;;15.80;8.85;;;9.80;99.90;;;;;;6187675;23;20017;-83
2023/05/04 07:25:34;;;;;;;11.77;8.38;;;10.00;99.90;;;;;;6185573;23;20334;-85
2023/05/04 07:28:00;;;;;;;14.75;8.07;;;10.00;99.90;;;;;;6186775;23;20020;-87
2023/05/04 07:30:26;;;;;;;14.40;8.25;;;10.00;99.90;;;;;;6185338;23;20013;-81
2023/05/04 07:32:51;;;;;;;11.93;8.05;;;10.10;99.90;;;;;;6185086;23;20024;-76
2023/05/04 07:35:17;;;;;;;14.95;8.20;;;10.20;99.90;;;;;;6185010;23;20009;-72
2023/05/04 07:37:43;;;;;;;14.63;8.40;;;10.30;99.90;;;;;;6160141;23;20013;-72
2023/05/04 07:40:09;;;;;;;12.38;9.20;;;10.40;99.90;;;;;;6186910;23;20116;-72
2023/05/04 07:42:35;;;;;;;14.85;7.95;;;10.40;99.90;;;;;;6185007;23;20017;-72
2023/05/04 07:45:01;;;;;;;11.60;7.80;;;10.50;99.90;;;;;;6186989;23;20017;-71
2023/05/04 07:47:26;;;;;;;14.65;8.55;;;10.60;99.90;;;;;;6160038;23;20013;-71
2023/05/04 07:49:52;;;;;;;15.55;8.55;;;10.70;99.90;;;;;;6184968;23;20095;-71
2023/05/04 07:52:18;;;;;;;11.70;8.45;;;10.70;99.90;;;;;;6160229;23;20012;-72
2023/05/04 07:54:44;;;;;;;16.00;8.18;;;10.80;99.90;;;;;;6185083;23;20017;-69
2023/05/04 07:57:09;;;;;;;9.45;7.22;;;10.80;99.90;;;;;;6186990;23;20377;-76
2023/05/04 07:59:35;;;;;;;13.27;8.23;;;10.80;99.90;;;;;;6186843;23;20036;-79
2023/05/04 08:02:00;;;;;;;12.05;7.68;;;10.90;99.90;;;;;;6184947;23;20083;-71
2023/05/04 08:04:26;;;;;;;12.15;7.82;;;11.00;99.90;;;;;;6184995;23;20433;-74
2023/05/04 08:06:52;;;;;;;12.48;7.20;;;11.10;99.90;;;;;;6159957;23;20091;-73
2023/05/04 08:09:18;;;;;;;13.88;7.30;;;11.20;99.90;;;;;;6184679;23;20088;-72
2023/05/04 08:11:45;;;;;;;10.65;7.43;;;11.20;99.90;;;;;;6184642;23;20009;-72
2023/05/04 08:14:10;;;;;;;11.15;6.78;;;11.30;99.90;;;;;;6184526;23;20044;-72
2023/05/04 08:16:38;;;;;;;37.72;8.73;;;11.40;99.90;;;;;;6184997;23;20046;-72
2023/05/04 08:19:04;;;;;;;10.35;7.65;;;11.50;99.90;;;;;;6184487;23;20033;-72
2023/05/04 08:21:30;;;;;;;12.60;7.35;;;11.50;99.90;;;;;;6159530;23;20020;-72
2023/05/04 08:23:56;;;;;;;7.72;6.85;;;11.70;99.90;;;;;;6186351;23;20017;-70
2023/05/04 08:26:22;;;;;;;15.20;6.88;;;11.80;99.90;;;;;;6184117;23;20040;-69
2023/05/04 08:28:48;;;;;;;9.45;7.07;;;11.80;99.90;;;;;;6186324;23;20013;-72
2023/05/04 08:31:14;;;;;;;8.18;6.10;;;11.90;99.90;;;;;;6159840;23;20020;-72
2023/05/04 08:33:40;;;;;;;9.13;6.68;;;12.00;99.90;;;;;;6184408;23;20092;-72
2023/05/04 08:36:07;;;;;;;10.18;6.60;;;12.10;99.90;;;;;;6184369;23;20060;-78
2023/05/04 08:38:32;;;;;;;9.30;6.75;;;12.20;99.90;;;;;;6184401;23;20017;-72
2023/05/04 08:41:05;;;;;;;10.45;6.82;;;12.30;99.90;;;;;;6186324;23;20445;-71
2023/05/04 08:43:34;;;;;;;10.35;6.82;;;12.40;99.90;;;;;;6159706;23;20315;-71
2023/05/04 08:45:59;;;;;;;8.27;6.90;;;12.50;99.90;;;;;;6184345;23;20013;-71
2023/05/04 08:48:25;;;;;;;10.18;6.68;;;12.50;99.90;;;;;;6184259;23;20096;-72
2023/05/04 08:50:51;;;;;;;9.52;6.68;;;12.60;99.90;;;;;;6184299;23;20395;-72
2023/05/04 08:53:20;;;;;;;10.85;7.18;;;12.60;99.90;;;;;;6184234;23;20016;-69
2023/05/04 08:55:48;;;;;;;10.73;6.72;;;12.70;99.90;;;;;;6184752;23;20063;-71
2023/05/04 08:58:16;;;;;;;8.65;6.35;;;12.80;99.90;;;;;;6159397;23;20335;-71
2023/05/04 09:00:43;;;;;;;7.65;6.13;;;12.90;99.90;;;;;;6186212;23;20013;-71
2023/05/04 09:03:10;;;;;;;9.43;6.57;;;13.10;99.90;;;;;;6184628;23;20009;-71
2023/05/04 09:05:37;;;;;;;7.93;6.75;;;13.10;99.90;;;;;;6184476;23;20020;-71
2023/05/04 09:08:03;;;;;;;7.95;6.88;;;13.20;99.90;;;;;;6159316;23;20079;-72
2023/05/04 09:10:29;;;;;;;10.77;7.05;;;13.20;99.90;;;;;;6185930;23;20009;-71
2023/05/04 09:12:55;;;;;;;10.32;7.25;;;13.20;99.90;;;;;;6159225;23;20009;-72
2023/05/04 09:15:22;;;;;;;11.60;7.25;;;13.30;99.90;;;;;;6159150;23;20009;-71
2023/05/04 09:18:02;;;;;;;7.53;5.97;;;13.30;99.90;;;;;;6184086;23;20020;-72
2023/05/04 09:20:29;;;;;;;;;;;13.40;99.90;;;;;;6184342;23;20013;-72
2023/05/04 09:23:05;;;;;;;12.68;6.70;;;13.50;99.90;;;;;;6184121;23;20330;-73
2023/05/04 09:25:31;;;;;;;11.68;7.00;;;13.50;99.90;;;;;;6183945;23;20070;-75
2023/05/04 09:27:57;;;;;;;18.35;7.20;;;13.60;99.90;;;;;;6184369;23;20063;-72
2023/05/04 09:30:23;;;;;;;9.82;6.72;;;13.70;99.90;;;;;;6159558;23;20009;-83
2023/05/04 09:32:49;;;;;;;11.05;6.68;;;13.80;99.90;;;;;;6159206;23;20334;-83
2023/05/04 09:35:27;;;;;;;10.55;6.45;;;13.90;99.90;;;;;;6159286;23;20330;-83
2023/05/04 09:37:53;;;;;;;10.35;6.82;;;14.00;99.90;;;;;;6159986;23;20020;-83
2023/05/04 09:40:29;;;;;;;25.40;7.78;;;14.10;99.90;;;;;;6186295;23;20013;-82
2023/05/04 09:42:56;;;;;;;8.93;6.45;;;14.30;99.90;;;;;;6161219;23;20016;-85
2023/05/04 09:45:21;;;;;;;9.52;6.57;;;14.40;99.90;;;;;;6161236;23;20075;-85
2023/05/04 09:47:49;;;;;;;14.23;6.60;;;14.40;99.90;;;;;;6186265;23;20009;-85
2023/05/04 09:50:21;;;;;;;10.02;6.30;;;14.50;99.90;;;;;;6186358;23;20020;-84
2023/05/04 09:52:47;;;;;;;13.07;7.53;;;14.60;99.90;;;;;;6161426;23;20032;-84
2023/05/04 09:55:14;;;;;;;16.52;6.82;;;14.70;99.90;;;;;;6160944;23;20009;-85
2023/05/04 09:57:45;;;;;;;13.55;6.43;;;14.80;99.90;;;;;;6161049;23;20013;-85
2023/05/04 10:00:13;;;;;;;42.08;8.82;;;14.70;99.30;;;;;;6186240;23;20040;-85
2023/05/04 10:02:39;;;;;;;10.07;6.55;;;14.80;99.70;;;;;;6186272;23;20064;-84
2023/05/04 10:05:09;;;;;;;19.50;7.20;;;14.80;99.80;;;;;;6160805;23;20013;-85
2023/05/04 10:07:35;;;;;;;;;;;14.90;99.30;;;;;;6161800;23;20017;-85
2023/05/04 10:10:01;;;;;;;15.73;6.85;;;15.00;99.00;;;;;;6160888;23;19916;-84
2023/05/04 10:12:27;;;;;;;7.68;6.18;;;15.10;99.40;;;;;;6160828;23;20374;-85
2023/05/04 10:14:53;;;;;;;12.48;6.25;;;15.20;98.50;;;;;;6186122;23;20063;-85
2023/05/04 10:17:18;;;;;;;22.20;7.63;;;15.40;99.10;;;;;;6160929;23;20465;-85
2023/05/04 10:19:58;;;;;;;8.68;5.82;;;15.50;98.40;;;;;;6186047;23;20460;-84
2023/05/04 10:23:06;;;;;;;8.07;5.75;;;15.60;97.50;;;;;;6186035;23;20087;-85
2023/05/04 10:25:42;;;;;;;11.27;5.72;;;15.70;98.20;;;;;;6185834;23;20048;-85
2023/05/04 10:28:22;;;;;;;8.57;4.90;;;15.80;98.10;;;;;;6185641;23;20411;-85
2023/05/04 10:30:53;;;;;;;8.10;6.28;;;16.00;96.30;;;;;;6187137;23;20017;-85
2023/05/04 10:33:18;;;;;;;14.13;6.97;;;16.10;96.40;;;;;;6160700;23;20382;-83
2023/05/04 10:35:54;;;;;;;8.90;5.57;;;16.10;96.20;;;;;;6185588;23;20020;-83
2023/05/04 10:38:31;;;;;;;8.25;5.45;;;16.20;96.00;;;;;;6185864;23;20009;-85
2023/05/04 10:40:56;;;;;;;6.50;5.68;;;16.20;96.30;;;;;;6160647;23;20092;-85
2023/05/04 10:43:22;;;;;;;7.07;5.40;;;16.30;96.80;;;;;;6160510;23;20446;-85
2023/05/04 10:45:48;;;;;;;9.77;5.32;;;16.40;96.10;;;;;;6186256;23;20415;-85
2023/05/04 10:48:15;;;;;;;7.78;6.05;;;16.40;95.00;;;;;;6160481;23;20021;-84
2023/05/04 10:50:45;;;;;;;10.10;5.70;;;16.40;94.30;;;;;;6160187;23;20136;-85
2023/05/04 10:53:12;;;;;;;8.48;5.43;;;16.50;94.70;;;;;;6160457;23;20439;-85
2023/05/04 10:55:39;;;;;;;9.90;5.57;;;16.50;95.00;;;;;;6160509;23;20013;-84
2023/05/04 10:58:05;;;;;;;6.65;4.57;;;16.60;94.20;;;;;;6160399;23;20041;-85
2023/05/04 11:00:43;;;;;;;8.57;5.18;;;16.60;92.50;;;;;;6187094;23;20013;-84
2023/05/04 11:03:10;;;;;;;8.30;4.78;;;16.70;92.00;;;;;;6185284;23;20017;-84
2023/05/04 11:05:44;;;;;;;7.95;5.18;;;16.70;91.20;;;;;;6160263;23;20036;-85
2023/05/04 11:08:19;;;;;;;7.35;4.93;;;16.70;91.50;;;;;;6185646;23;20024;-84
2023/05/04 11:10:59;;;;;;;7.35;4.43;;;16.80;91.30;;;;;;6160203;23;20017;-84
2023/05/04 11:13:26;;;;;;;7.43;4.55;;;16.90;91.90;;;;;;6160217;23;20020;-84
2023/05/04 11:15:52;;;;;;;6.32;4.60;;;17.10;90.60;;;;;;6185433;23;20013;-84
2023/05/04 11:18:29;;;;;;;7.55;5.15;;;17.20;90.40;;;;;;6160205;23;20013;-82
2023/05/04 11:20:56;;;;;;;9.38;4.78;;;17.20;90.70;;;;;;6159973;23;20049;-82
2023/05/04 11:23:22;;;;;;;7.68;4.63;;;17.30;91.20;;;;;;6185506;23;20016;-82
2023/05/04 11:25:51;;;;;;;6.63;4.53;;;17.40;89.10;;;;;;6185334;23;20013;-82
2023/05/04 11:28:17;;;;;;;7.05;4.43;;;17.50;89.10;;;;;;6184948;23;20705;-82
2023/05/04 11:30:44;;;;;;;6.93;4.00;;;17.50;89.20;;;;;;6184938;23;20013;-82
2023/05/04 11:33:12;;;;;;;6.20;4.03;;;17.60;90.30;;;;;;6160349;23;20335;-82
2023/05/04 11:35:38;;;;;;;5.93;3.63;;;17.70;84.60;;;;;;6186784;23;20009;-82
2023/05/04 11:38:05;;;;;;;7.68;4.38;;;17.80;86.10;;;;;;6184931;23;20449;-82
2023/05/04 11:40:32;;;;;;;8.35;4.20;;;17.80;86.40;;;;;;6184887;23;20009;-84
2023/05/04 11:42:59;;;;;;;6.18;4.00;;;17.80;86.00;;;;;;6186684;23;20059;-82
2023/05/04 11:45:33;;;;;;;9.27;3.70;;;17.90;84.90;;;;;;6159849;23;20066;-82
2023/05/04 11:48:00;;;;;;;5.13;3.88;;;17.90;84.50;;;;;;6185169;23;20023;-82
2023/05/04 11:50:27;;;;;;;7.38;3.95;;;18.00;84.80;;;;;;6184818;23;20311;-82
2023/05/04 11:53:13;;;;;;;6.22;3.80;;;18.10;85.40;;;;;;6186713;23;20033;-82
2023/05/04 11:55:39;;;;;;;7.25;3.95;;;18.10;83.90;;;;;;6160059;23;20027;-82
2023/05/04 11:58:07;;;;;;;6.70;3.80;;;18.20;84.20;;;;;;6159727;23;20018;-82
2023/05/04 12:00:44;;;;;;;7.43;4.28;;;18.20;83.20;;;;;;6184885;23;20013;-82
2023/05/04 12:03:12;;;;;;;5.50;3.75;;;18.20;83.90;;;;;;6185104;23;20063;-82
2023/05/04 12:05:45;;;;;;;6.70;3.88;;;18.40;84.30;;;;;;6159718;23;20013;-82
2023/05/04 12:08:25;;;;;;;8.48;4.43;;;18.50;85.00;;;;;;6159772;23;20379;-82
2023/05/04 12:11:12;;;;;;;6.57;3.60;;;18.60;84.50;;;;;;6161716;23;20147;-82
2023/05/04 12:13:39;;;;;;;6.97;3.97;;;18.70;85.70;;;;;;6139531;23;20032;-82
2023/05/04 12:16:14;;;;;;;4.70;3.60;;;18.80;81.00;;;;;;6159718;23;20040;-82
2023/05/04 12:18:40;;;;;;;4.57;3.38;;;18.90;79.10;;;;;;6184922;23;20108;-82
2023/05/04 12:21:17;;;;;;;5.45;3.70;;;19.00;80.50;;;;;;6159334;23;20032;-82
2023/05/04 12:23:44;;;;;;;5.95;4.20;;;19.00;79.80;;;;;;6159681;23;20013;-82
2023/05/04 12:26:10;;;;;;;6.68;4.35;;;19.10;80.20;;;;;;6184185;23;20020;-82
2023/05/04 12:28:38;;;;;;;5.63;3.20;;;19.10;80.10;;;;;;6184742;23;20020;-82
2023/05/04 12:31:05;;;;;;;5.32;3.70;;;19.10;79.70;;;;;;6184818;23;20080;-82
2023/05/04 12:33:33;;;;;;;5.00;3.10;;;19.20;78.20;;;;;;6159628;23;20015;-82
2023/05/04 12:36:00;;;;;;;6.28;3.45;;;19.20;79.10;;;;;;6159537;23;20020;-82
2023/05/04 12:38:26;;;;;;;5.22;3.50;;;19.20;80.60;;;;;;6159585;23;20442;-82
2023/05/04 12:40:52;;;;;;;4.90;4.07;;;19.30;78.30;;;;;;6184694;23;20015;-82
2023/05/04 12:43:21;;;;;;;5.82;3.22;;;19.40;81.30;;;;;;6184281;23;20087;-82
2023/05/04 12:45:50;;;;;;;7.07;4.10;;;19.50;80.90;;;;;;6159373;23;20009;-82
2023/05/04 12:48:17;;;;;;;4.93;3.80;;;19.60;78.80;;;;;;6159440;23;20147;-82